Flight Track Log - Related Links

Times and Time Zones

All times are in EST time to prevent confusion due to time zone crossing. See the N319EE flight status page for this flight to view local times or setup timezone preferences in your user account.

Time Position Orientation Groundspeed Altitude Reporting Facility
EST Latitude Longitude Course Direction KTS MPH feet Rate Location/Type
Thu 07:46:33 AM 42.1725 -76.0033 310° West 177 204 5,100  Level New York Center
Thu 07:47:33 AM 42.1997 -76.0475 310° West 177 204 7,000 1,900 Climbing New York Center
Thu 07:48:33 AM 42.2286 -76.0944 310° West 172 198 8,900 1,500 Climbing New York Center
Thu 07:49:33 AM 42.2578 -76.1444 308° West 166 191 10,000 600 Climbing New York Center
Thu 07:50:33 AM 42.2942 -76.2119 306° West 190 219 10,100  Climbing New York Center
Thu 07:51:33 AM 42.3406 -76.2886 309° West 219 252 10,000 -50 Descending New York Center
Thu 07:52:33 AM 42.3831 -76.3597 309° West 231 266 10,000  Level New York Center
Thu 07:53:33 AM 42.4236 -76.4278 309° West 237 273 10,000  Level New York Center
Thu 07:54:33 AM 42.4639 -76.4986 308° West 237 273 10,000  Level New York Center
Thu 07:55:33 AM 42.5061 -76.5756 307° West 237 273 10,000  Level New York Center
Thu 07:57:58 AM 42.6042 -76.7494 307° West 252 290 10,000  Level Cleveland Center
Thu 07:58:41 AM 42.6358 -76.8050 308° West 248 285 10,000 98 Level Cleveland Center
Thu 07:58:59 AM 42.6464 -76.8219 310° West 248 285 10,100  Climbing Cleveland Center
Thu 07:59:41 AM 42.6783 -76.8817 306° West 235 270 10,000  Descending Cleveland Center
Thu 08:00:01 AM 42.6856 -76.8919 314° West 237 273 10,100 -492 Climbing Cleveland Center
Thu 08:00:42 AM 42.7194 -76.9522 307° West 239 275 9,500 -581 Descending Cleveland Center
Thu 08:01:03 AM 42.7258 -76.9639 307° West 239 275 9,500 -984 Level Cleveland Center
Thu 08:01:43 AM 42.7603 -77.0258 307° West 242 278 8,500 -1,279 Descending Cleveland Center
Thu 08:02:04 AM 42.7747 -77.0497 309° West 241 277 8,200 -1,100 Descending Cleveland Center
Thu 08:02:43 AM 42.7994 -77.0964 306° West 231 266 7,400 -1,452 Descending Cleveland Center
Thu 08:03:06 AM 42.8139 -77.1197 310° West 236 272 6,700 -1,636 Descending Cleveland Center
Thu 08:03:38 AM 42.8367 -77.1633 305° West 243 280 5,900 -1,548 Descending Cleveland Center
Thu 08:04:08 AM 42.8542 -77.1936 308° West 241 277 5,100 -1,800 Descending Cleveland Center
Thu 08:04:38 AM 42.8772 -77.2372 306° West 243 280 4,100 -1,082 Descending Cleveland Center
Thu 08:05:09 AM 42.8953 -77.2653 311° West 242 278 4,000 -98 Descending Cleveland Center
Thu 08:05:39 AM 42.9222 -77.2950 321° Northwest 225 259 4,000 -194 Level Cleveland Center
Thu 08:06:11 AM 42.9442 -77.3111 332° Northwest 225 259 3,800 -982 Descending Cleveland Center
Thu 08:06:34 AM 42.9692 -77.3389 321° Northwest 226 260 3,100 -1,258 Descending Cleveland Center
Thu 08:07:13 AM 42.9978 -77.3636 328° Northwest 231 266 2,500 -600 Descending Cleveland Center
Thu 08:07:34 AM 43.0236 -77.3906 323° Northwest 244 281 2,500  Level Cleveland Center
Thu 08:08:15 AM 43.0611 -77.4261 325° Northwest 236 272 2,500  Level Cleveland Center
Thu 08:08:35 AM 43.0758 -77.4417 322° Northwest 218 251 2,500  Level Cleveland Center
Thu 08:09:16 AM 43.1078 -77.4697 327° Northwest 217 250 2,500 -100 Level Cleveland Center
Thu 08:09:35 AM 43.1189 -77.4819 321° Northwest 184 212 2,400 -387 Descending Cleveland Center
Thu 08:10:18 AM 43.1297 -77.5253 289° West 190 219 2,100 -295 Descending Cleveland Center
Thu 08:10:36 AM 43.1269 -77.5450 259° West 158 182 2,100 -387 Level Cleveland Center
Thu 08:11:20 AM 43.1264 -77.5819 269° West 168 193 1,700 -689 Descending Cleveland Center
Thu 08:11:37 AM 43.1247 -77.6053 264° West 150 173 1,400 -774 Descending Cleveland Center
Thu 08:12:22 AM 43.1253 -77.6392 271° West 157 181 900 -800 Descending Cleveland Center
Thu 08:12:37 AM 43.1239 -77.6572 264° West 131 151 600 -295 Descending Cleveland Center
Thu 08:13:23 AM 43.1222 -77.7019 267° West 153 176 600  Level Cleveland Center
Thu 08:15:00 AM 43.1167 -77.6667 90° East  Level FlightAware Approximate

Login

Don't have an account? Register now (free) for customized features, flight alerts, and more!